Time;durP1;ratioP1;P1;durP2;ratioP2;P2;SDS_P1;SDS_P2;PMS_P1;PMS_P2;Temp;Humidity;BMP_temperature;BMP_pressure;BME280_temperature;BME280_humidity;BME280_pressure;Samples;Min_cycle;Max_cycle;Signal;HPM_P1;HPM_P2
2021/10/10 00:02:03;;;;;;;10.57;9.47;;;;;;;;;;4975114;28;20527;-72
2021/10/10 00:04:29;;;;;;;12.80;9.70;;;;;;;;;;4975095;28;20779;-72
2021/10/10 00:06:55;;;;;;;16.10;9.90;;;;;;;;;;4975059;28;20431;-71
2021/10/10 00:09:21;;;;;;;14.37;10.70;;;;;;;;;;4974848;28;20523;-71
2021/10/10 00:11:47;;;;;;;14.43;10.37;;;;;;;;;;4974727;28;20518;-71
2021/10/10 00:17:17;;;;;;;13.43;10.90;;;;;;;;;;4974797;28;20518;-72
2021/10/10 00:19:43;;;;;;;13.13;9.80;;;;;;;;;;4974868;28;20540;-72
2021/10/10 00:22:09;;;;;;;13.63;11.53;;;;;;;;;;4974846;28;20503;-72
2021/10/10 00:24:35;;;;;;;14.40;9.80;;;;;;;;;;4974679;28;20416;-72
2021/10/10 00:27:01;;;;;;;15.77;11.43;;;;;;;;;;4974710;28;20784;-72
2021/10/10 00:32:30;;;;;;;17.63;11.20;;;;;;;;;;4974618;28;20556;-72
2021/10/10 00:34:56;;;;;;;16.07;11.87;;;;;;;;;;4974648;28;20424;-72
2021/10/10 00:37:23;;;;;;;16.37;10.47;;;;;;;;;;4974758;28;20435;-71
2021/10/10 00:39:48;;;;;;;13.27;10.33;;;;;;;;;;4974835;28;20773;-72
2021/10/10 00:42:14;;;;;;;10.80;9.60;;;;;;;;;;4974464;28;20427;-71
2021/10/10 00:47:44;;;;;;;17.13;11.33;;;;;;;;;;4974280;28;20463;-72
2021/10/10 00:50:11;;;;;;;17.07;10.97;;;;;;;;;;4974454;28;20436;-72
2021/10/10 00:52:40;;;;;;;13.93;9.63;;;;;;;;;;4974429;28;20424;-73
2021/10/10 00:55:06;;;;;;;16.77;10.47;;;;;;;;;;4974311;28;20466;-73
2021/10/10 00:57:33;;;;;;;14.73;9.73;;;;;;;;;;4974168;28;20780;-72
2021/10/10 01:03:02;;;;;;;11.57;9.10;;;;;;;;;;4974336;28;20421;-72
2021/10/10 01:05:28;;;;;;;11.10;9.03;;;;;;;;;;4974518;28;20523;-72
2021/10/10 01:07:54;;;;;;;10.90;9.40;;;;;;;;;;4974474;28;20557;-72
2021/10/10 01:10:20;;;;;;;13.03;9.90;;;;;;;;;;4974397;28;20442;-72
2021/10/10 01:12:47;;;;;;;13.47;10.50;;;;;;;;;;4974067;28;20475;-72
2021/10/10 01:18:23;;;;;;;11.90;10.30;;;;;;;;;;4974150;28;20632;-72
2021/10/10 01:20:49;;;;;;;14.13;9.57;;;;;;;;;;4974435;28;20415;-71
2021/10/10 01:23:15;;;;;;;11.20;9.97;;;;;;;;;;4974345;28;20527;-72
2021/10/10 01:25:42;;;;;;;12.90;10.30;;;;;;;;;;4974116;28;20417;-72
2021/10/10 01:28:08;;;;;;;11.20;9.70;;;;;;;;;;4973946;28;20566;-72
2021/10/10 01:33:37;;;;;;;14.73;9.50;;;;;;;;;;4974010;28;20464;-72
2021/10/10 01:36:04;;;;;;;13.50;10.37;;;;;;;;;;4973994;28;20426;-71
2021/10/10 01:38:30;;;;;;;14.00;10.17;;;;;;;;;;4973401;28;20461;-72
2021/10/10 01:40:56;;;;;;;18.90;10.90;;;;;;;;;;4973797;28;20474;-71
2021/10/10 01:43:22;;;;;;;17.70;9.93;;;;;;;;;;4973707;28;20776;-71
2021/10/10 01:48:51;;;;;;;12.90;9.97;;;;;;;;;;4973917;28;20578;-71
2021/10/10 01:51:17;;;;;;;12.90;9.80;;;;;;;;;;4974237;28;20453;-72
2021/10/10 01:53:43;;;;;;;13.60;9.90;;;;;;;;;;4973961;28;20426;-72
2021/10/10 01:56:10;;;;;;;11.60;9.47;;;;;;;;;;4973591;28;20478;-71
2021/10/10 01:58:36;;;;;;;13.17;9.70;;;;;;;;;;4974004;28;20514;-71
2021/10/10 02:04:06;;;;;;;13.27;10.07;;;;;;;;;;4977346;28;20559;-72
2021/10/10 02:06:32;;;;;;;12.80;9.80;;;;;;;;;;4977237;28;20423;-72
2021/10/10 02:08:58;;;;;;;12.13;10.30;;;;;;;;;;4977158;28;20470;-72
2021/10/10 02:11:24;;;;;;;12.60;9.80;;;;;;;;;;4977066;28;20414;-72
2021/10/10 02:13:50;;;;;;;13.03;10.50;;;;;;;;;;4977049;28;20518;-72
2021/10/10 02:19:20;;;;;;;17.13;9.83;;;;;;;;;;4977116;28;20422;-72
2021/10/10 02:21:45;;;;;;;12.67;10.33;;;;;;;;;;4976953;28;20438;-72
2021/10/10 02:24:11;;;;;;;10.70;8.33;;;;;;;;;;4977023;28;20416;-71
2021/10/10 02:26:37;;;;;;;11.83;9.77;;;;;;;;;;4976833;28;20425;-71
2021/10/10 02:29:03;;;;;;;11.00;9.77;;;;;;;;;;4976676;28;20473;-71
2021/10/10 02:31:29;;;;;;;13.20;9.90;;;;;;;;;;4976996;28;20418;-71
2021/10/10 02:33:55;;;;;;;12.73;9.47;;;;;;;;;;4977085;28;20426;-72
2021/10/10 02:36:21;;;;;;;13.93;9.43;;;;;;;;;;4976942;28;20428;-72
2021/10/10 02:38:47;;;;;;;11.30;10.10;;;;;;;;;;4976762;28;20419;-71
2021/10/10 02:41:13;;;;;;;13.17;9.07;;;;;;;;;;4975251;28;20501;-72
2021/10/10 02:43:39;;;;;;;16.40;11.50;;;;;;;;;;4976641;28;20521;-72
2021/10/10 02:49:09;;;;;;;14.03;9.97;;;;;;;;;;4976468;28;20516;-72
2021/10/10 02:51:35;;;;;;;16.47;10.50;;;;;;;;;;4976484;28;20782;-71
2021/10/10 02:54:01;;;;;;;13.70;9.17;;;;;;;;;;4976394;28;20525;-72
2021/10/10 02:56:27;;;;;;;11.17;10.00;;;;;;;;;;4976026;28;20505;-71
2021/10/10 02:58:53;;;;;;;12.83;10.00;;;;;;;;;;4976270;28;20423;-71
2021/10/10 03:04:22;;;;;;;16.20;9.80;;;;;;;;;;4976219;28;20405;-72
2021/10/10 03:06:48;;;;;;;15.70;10.03;;;;;;;;;;4974872;28;20525;-71
2021/10/10 03:09:14;;;;;;;16.43;10.07;;;;;;;;;;4975728;28;20532;-72
2021/10/10 03:11:40;;;;;;;11.87;9.83;;;;;;;;;;4975886;28;20499;-71
2021/10/10 03:14:06;;;;;;;12.47;8.97;;;;;;;;;;4974931;28;20486;-72
2021/10/10 03:19:36;;;;;;;15.93;10.47;;;;;;;;;;4975850;28;20469;-72
2021/10/10 03:22:02;;;;;;;10.47;8.93;;;;;;;;;;4975693;28;20813;-72
2021/10/10 03:24:27;;;;;;;12.97;9.00;;;;;;;;;;4975735;28;20399;-72
2021/10/10 03:26:53;;;;;;;13.20;9.83;;;;;;;;;;4975665;28;20833;-72
2021/10/10 03:29:19;;;;;;;14.43;10.80;;;;;;;;;;4975661;28;20537;-72
2021/10/10 03:31:45;;;;;;;13.47;10.23;;;;;;;;;;4975592;28;20415;-72
2021/10/10 03:34:11;;;;;;;16.87;10.73;;;;;;;;;;4975630;28;20415;-72
2021/10/10 03:36:37;;;;;;;12.77;9.33;;;;;;;;;;4975562;28;20465;-71
2021/10/10 03:39:03;;;;;;;11.10;9.97;;;;;;;;;;4975532;28;20419;-72
2021/10/10 03:41:29;;;;;;;13.17;10.33;;;;;;;;;;4975434;28;20418;-72
2021/10/10 03:43:55;;;;;;;13.20;10.40;;;;;;;;;;4975222;28;20498;-72
2021/10/10 03:49:26;;;;;;;12.87;10.30;;;;;;;;;;4975331;28;20557;-72
2021/10/10 03:51:52;;;;;;;12.77;9.80;;;;;;;;;;4974058;28;20430;-72
2021/10/10 03:56:47;;;;;;;14.60;10.60;;;;;;;;;;4975461;28;20435;-71
2021/10/10 03:59:13;;;;;;;16.67;11.93;;;;;;;;;;4975361;28;20466;-71
2021/10/10 04:04:42;;;;;;;14.18;9.55;;;;;;;;;;4975152;28;20493;-71
2021/10/10 04:07:08;;;;;;;13.70;10.20;;;;;;;;;;4975048;28;20631;-71
2021/10/10 04:09:34;;;;;;;15.60;12.23;;;;;;;;;;4975106;28;20527;-72
2021/10/10 04:12:00;;;;;;;13.57;10.47;;;;;;;;;;4974727;28;20902;-72
2021/10/10 04:14:26;;;;;;;10.60;8.87;;;;;;;;;;4975020;28;20780;-72
2021/10/10 04:19:55;;;;;;;11.80;9.57;;;;;;;;;;4974709;28;20410;-71
2021/10/10 04:22:21;;;;;;;14.30;11.40;;;;;;;;;;4974657;28;20415;-71
2021/10/10 04:24:47;;;;;;;15.43;10.93;;;;;;;;;;4974412;28;20757;-71
2021/10/10 04:27:13;;;;;;;13.57;10.87;;;;;;;;;;4974497;28;20419;-72
2021/10/10 04:29:39;;;;;;;13.97;10.57;;;;;;;;;;4974334;28;20470;-72
2021/10/10 04:32:05;;;;;;;14.40;10.13;;;;;;;;;;4974582;28;20804;-72
2021/10/10 04:34:31;;;;;;;12.47;11.10;;;;;;;;;;4974452;28;20505;-72
2021/10/10 04:36:57;;;;;;;16.10;11.27;;;;;;;;;;4974489;28;20826;-72
2021/10/10 04:39:23;;;;;;;12.07;10.13;;;;;;;;;;4974607;28;20529;-71
2021/10/10 04:41:49;;;;;;;14.93;10.10;;;;;;;;;;4974314;28;20442;-72
2021/10/10 04:44:15;;;;;;;16.33;10.87;;;;;;;;;;4973290;28;20413;-72
2021/10/10 04:49:44;;;;;;;13.10;10.70;;;;;;;;;;4974175;28;20988;-71
2021/10/10 04:52:10;;;;;;;16.03;10.63;;;;;;;;;;4974203;28;20419;-72
2021/10/10 04:54:36;;;;;;;12.47;10.60;;;;;;;;;;4974074;28;20900;-72
2021/10/10 04:57:02;;;;;;;13.07;10.97;;;;;;;;;;4974135;28;20425;-71
2021/10/10 04:59:28;;;;;;;14.10;10.87;;;;;;;;;;4974184;28;20453;-72
2021/10/10 05:04:58;;;;;;;14.77;10.87;;;;;;;;;;4974248;28;20554;-70
2021/10/10 05:07:24;;;;;;;16.30;11.33;;;;;;;;;;4974009;28;20515;-72
2021/10/10 05:09:51;;;;;;;12.53;11.23;;;;;;;;;;4974231;28;20441;-71
2021/10/10 05:12:17;;;;;;;13.23;10.23;;;;;;;;;;4973975;28;20422;-72
2021/10/10 05:14:43;;;;;;;18.30;11.03;;;;;;;;;;4974329;28;20452;-71
2021/10/10 05:20:12;;;;;;;13.47;11.57;;;;;;;;;;4974101;28;20921;-72
2021/10/10 05:22:38;;;;;;;13.77;10.60;;;;;;;;;;4974107;28;20435;-72
2021/10/10 05:25:05;;;;;;;14.20;10.37;;;;;;;;;;4973944;28;20514;-71
2021/10/10 05:27:31;;;;;;;13.38;11.18;;;;;;;;;;4972867;28;20537;-72
2021/10/10 05:29:57;;;;;;;16.97;11.77;;;;;;;;;;4973892;28;20647;-72
2021/10/10 05:35:26;;;;;;;13.30;9.90;;;;;;;;;;4973928;28;20424;-72
2021/10/10 05:37:52;;;;;;;17.97;12.03;;;;;;;;;;4976239;28;20812;-71
2021/10/10 05:40:18;;;;;;;16.27;11.07;;;;;;;;;;4977692;28;20418;-71
2021/10/10 05:42:44;;;;;;;17.53;12.77;;;;;;;;;;4977414;28;20427;-71
2021/10/10 05:45:10;;;;;;;14.20;10.63;;;;;;;;;;4977405;28;20445;-72
2021/10/10 05:47:36;;;;;;;18.33;10.73;;;;;;;;;;4977728;28;20431;-72
2021/10/10 05:50:06;;;;;;;16.20;11.97;;;;;;;;;;4977245;28;20433;-70
2021/10/10 05:52:33;;;;;;;14.70;11.30;;;;;;;;;;4977754;28;20457;-72
2021/10/10 05:54:59;;;;;;;25.27;12.80;;;;;;;;;;4977242;28;20492;-73
2021/10/10 05:57:33;;;;;;;15.70;10.07;;;;;;;;;;4977180;28;20422;-73
2021/10/10 06:00:02;;;;;;;14.07;10.97;;;;;;;;;;4977488;28;20517;-70
2021/10/10 06:05:32;;;;;;;24.00;12.20;;;;;;;;;;4977077;28;20465;-72
2021/10/10 06:07:58;;;;;;;16.57;11.60;;;;;;;;;;4976991;28;20454;-72
2021/10/10 06:10:24;;;;;;;15.10;11.90;;;;;;;;;;4977173;28;20827;-72
2021/10/10 06:12:50;;;;;;;13.07;10.73;;;;;;;;;;4976832;28;20407;-70
2021/10/10 06:15:16;;;;;;;17.57;11.57;;;;;;;;;;4977023;28;20509;-71
2021/10/10 06:20:45;;;;;;;14.53;11.20;;;;;;;;;;4976961;28;20498;-71
2021/10/10 06:23:11;;;;;;;12.80;11.50;;;;;;;;;;4974776;28;20526;-71
2021/10/10 06:25:39;;;;;;;17.50;12.07;;;;;;;;;;4975125;28;20399;-71
2021/10/10 06:28:05;;;;;;;20.00;11.30;;;;;;;;;;4975730;28;20458;-72
2021/10/10 06:30:31;;;;;;;13.07;11.20;;;;;;;;;;4975917;28;20431;-72
2021/10/10 06:32:57;;;;;;;16.50;11.53;;;;;;;;;;4975818;28;20415;-72
2021/10/10 06:35:23;;;;;;;16.53;11.57;;;;;;;;;;4976172;28;20422;-71
2021/10/10 06:37:49;;;;;;;18.07;12.07;;;;;;;;;;4975862;28;20422;-71
2021/10/10 06:40:15;;;;;;;17.57;11.60;;;;;;;;;;4975734;28;20470;-70
2021/10/10 06:42:42;;;;;;;13.67;11.90;;;;;;;;;;4975612;28;20422;-71
2021/10/10 06:45:08;;;;;;;20.10;12.10;;;;;;;;;;4976014;28;20415;-72
2021/10/10 06:50:37;;;;;;;17.30;11.00;;;;;;;;;;4975597;28;20493;-69
2021/10/10 06:53:03;;;;;;;15.13;11.63;;;;;;;;;;4975606;28;20441;-68
2021/10/10 06:55:29;;;;;;;16.43;11.40;;;;;;;;;;4974719;28;20490;-68
2021/10/10 06:57:55;;;;;;;13.77;10.23;;;;;;;;;;4976400;28;20419;-68
2021/10/10 07:00:21;;;;;;;13.90;11.00;;;;;;;;;;4975886;28;20423;-70
2021/10/10 07:05:51;;;;;;;15.80;11.57;;;;;;;;;;4975944;28;20409;-70
2021/10/10 07:08:17;;;;;;;13.70;11.00;;;;;;;;;;4975785;28;20474;-70
2021/10/10 07:10:43;;;;;;;15.63;12.90;;;;;;;;;;4975826;28;20430;-70
2021/10/10 07:13:09;;;;;;;14.67;11.50;;;;;;;;;;4975554;28;20412;-71
2021/10/10 07:15:35;;;;;;;18.00;13.03;;;;;;;;;;4975672;28;20487;-71
2021/10/10 07:21:21;;;;;;;14.40;11.53;;;;;;;;;;4975578;28;20418;-71
2021/10/10 07:26:20;;;;;;;13.93;11.20;;;;;;;;;;4982292;28;20426;-71
2021/10/10 07:28:46;;;;;;;18.53;11.50;;;;;;;;;;4975555;28;20499;-72
2021/10/10 07:31:12;;;;;;;13.30;11.73;;;;;;;;;;4975340;28;20409;-71
2021/10/10 07:33:40;;;;;;;13.30;10.33;;;;;;;;;;4975468;28;20429;-72
2021/10/10 07:36:06;;;;;;;19.50;12.73;;;;;;;;;;4975759;28;20448;-73
2021/10/10 07:38:32;;;;;;;17.80;11.33;;;;;;;;;;4975396;28;20923;-76
2021/10/10 07:40:59;;;;;;;12.87;11.30;;;;;;;;;;4975318;28;20418;-76
2021/10/10 07:43:26;;;;;;;12.77;10.13;;;;;;;;;;4975086;28;20537;-76
2021/10/10 07:45:52;;;;;;;17.60;11.73;;;;;;;;;;4975387;28;20429;-76
2021/10/10 07:51:25;;;;;;;16.43;10.80;;;;;;;;;;4975119;28;20473;-77
2021/10/10 07:53:51;;;;;;;16.43;11.00;;;;;;;;;;4972647;28;20433;-71
2021/10/10 07:56:19;;;;;;;12.73;10.80;;;;;;;;;;4972905;28;20474;-74
2021/10/10 07:58:45;;;;;;;16.47;11.00;;;;;;;;;;4975151;28;20422;-72
2021/10/10 08:01:11;;;;;;;17.23;11.57;;;;;;;;;;4974415;28;20456;-76
2021/10/10 08:03:37;;;;;;;14.67;11.20;;;;;;;;;;4975193;28;20488;-75
2021/10/10 08:06:03;;;;;;;18.30;12.00;;;;;;;;;;4975088;28;20415;-74
2021/10/10 08:08:29;;;;;;;19.03;11.03;;;;;;;;;;4974910;28;20474;-72
2021/10/10 08:10:55;;;;;;;18.70;11.60;;;;;;;;;;4975152;28;20425;-72
2021/10/10 08:13:21;;;;;;;14.20;11.37;;;;;;;;;;4975033;28;20787;-71
2021/10/10 08:15:47;;;;;;;11.73;9.90;;;;;;;;;;4975010;28;20889;-71
2021/10/10 08:21:16;;;;;;;14.17;11.40;;;;;;;;;;4974883;28;20433;-71
2021/10/10 08:23:43;;;;;;;20.03;12.23;;;;;;;;;;4975144;28;20422;-72
2021/10/10 08:26:09;;;;;;;15.13;11.23;;;;;;;;;;4974560;28;20418;-72
2021/10/10 08:28:35;;;;;;;14.20;12.00;;;;;;;;;;4974565;28;20616;-77
2021/10/10 08:31:01;;;;;;;13.63;12.33;;;;;;;;;;4974609;28;20413;-74
2021/10/10 08:36:31;;;;;;;18.10;11.80;;;;;;;;;;4974483;28;20920;-74
2021/10/10 08:38:57;;;;;;;16.63;12.60;;;;;;;;;;4974510;28;20549;-74
2021/10/10 08:41:29;;;;;;;16.40;11.73;;;;;;;;;;4974362;28;20430;-75
2021/10/10 08:43:56;;;;;;;13.80;12.03;;;;;;;;;;4974594;28;20421;-73
2021/10/10 08:46:24;;;;;;;15.93;11.50;;;;;;;;;;4974437;28;20430;-71
2021/10/10 08:51:53;;;;;;;13.67;11.17;;;;;;;;;;4974343;28;20440;-70
2021/10/10 08:54:19;;;;;;;14.83;11.53;;;;;;;;;;4974200;28;20498;-71
2021/10/10 08:56:45;;;;;;;12.13;10.63;;;;;;;;;;4974103;28;20423;-70
2021/10/10 08:59:11;;;;;;;14.67;12.00;;;;;;;;;;4974246;28;20944;-70
2021/10/10 09:01:38;;;;;;;11.70;10.57;;;;;;;;;;4974222;28;20430;-70
2021/10/10 09:07:08;;;;;;;12.50;11.20;;;;;;;;;;4974483;28;20425;-70
2021/10/10 09:09:39;;;;;;;14.33;12.03;;;;;;;;;;4972911;28;20466;-71
2021/10/10 09:12:12;;;;;;;15.70;12.50;;;;;;;;;;4975103;28;20414;-69
2021/10/10 09:14:48;;;;;;;14.10;12.27;;;;;;;;;;4977765;28;20453;-70
2021/10/10 09:17:15;;;;;;;14.20;12.10;;;;;;;;;;4978167;28;20757;-70
2021/10/10 09:19:48;;;;;;;12.20;10.93;;;;;;;;;;4978100;28;20807;-70
2021/10/10 09:22:14;;;;;;;14.90;12.53;;;;;;;;;;4978200;28;20422;-70
2021/10/10 09:24:40;;;;;;;13.80;11.50;;;;;;;;;;4978027;28;20451;-70
2021/10/10 09:27:10;;;;;;;13.43;11.30;;;;;;;;;;4977938;28;20498;-71
2021/10/10 09:29:40;;;;;;;14.47;11.70;;;;;;;;;;4977776;28;20553;-70
2021/10/10 09:32:11;;;;;;;13.80;12.33;;;;;;;;;;4977636;28;20535;-70
2021/10/10 09:34:38;;;;;;;19.10;12.07;;;;;;;;;;4977858;28;20499;-71
2021/10/10 09:37:05;;;;;;;15.53;11.80;;;;;;;;;;4977869;28;20418;-70
2021/10/10 09:39:40;;;;;;;15.53;12.70;;;;;;;;;;4977925;28;20502;-69
2021/10/10 09:42:06;;;;;;;18.07;12.80;;;;;;;;;;4977631;28;20537;-71
2021/10/10 09:44:45;;;;;;;17.63;11.87;;;;;;;;;;4977585;28;20988;-71
2021/10/10 09:47:12;;;;;;;16.43;11.30;;;;;;;;;;4977799;28;20410;-71
2021/10/10 09:49:38;;;;;;;17.27;11.73;;;;;;;;;;4977650;28;20564;-70
2021/10/10 09:52:07;;;;;;;19.23;13.20;;;;;;;;;;4977543;28;20425;-70
2021/10/10 09:54:54;;;;;;;12.53;11.20;;;;;;;;;;4977314;28;20470;-69
2021/10/10 09:57:21;;;;;;;13.20;11.80;;;;;;;;;;4977433;28;20438;-72
2021/10/10 09:59:47;;;;;;;12.87;11.50;;;;;;;;;;4977366;28;20403;-71
2021/10/10 10:02:14;;;;;;;13.03;11.47;;;;;;;;;;4977578;28;20415;-71
2021/10/10 10:04:44;;;;;;;12.03;10.33;;;;;;;;;;4976318;28;20521;-73
2021/10/10 10:07:11;;;;;;;15.70;12.73;;;;;;;;;;4977547;28;20918;-73
2021/10/10 10:09:37;;;;;;;11.87;10.57;;;;;;;;;;4976148;28;20833;-72
2021/10/10 10:12:03;;;;;;;11.97;10.73;;;;;;;;;;4977293;28;20438;-73
2021/10/10 10:14:30;;;;;;;16.80;11.53;;;;;;;;;;4977452;28;20472;-72
2021/10/10 10:16:59;;;;;;;13.77;12.37;;;;;;;;;;4977269;28;20407;-72
2021/10/10 10:22:30;;;;;;;19.03;11.50;;;;;;;;;;4976709;28;20413;-71
2021/10/10 10:24:57;;;;;;;13.00;11.53;;;;;;;;;;4974579;28;20553;-72
2021/10/10 10:27:23;;;;;;;16.90;11.87;;;;;;;;;;4975958;28;20461;-72
2021/10/10 10:29:51;;;;;;;14.33;11.53;;;;;;;;;;4976003;28;20983;-71
2021/10/10 10:32:18;;;;;;;12.60;10.87;;;;;;;;;;4976299;28;20414;-71
2021/10/10 10:37:48;;;;;;;11.83;10.83;;;;;;;;;;4975865;28;20944;-73
2021/10/10 10:40:14;;;;;;;11.97;10.77;;;;;;;;;;4975894;28;20438;-72
2021/10/10 10:42:41;;;;;;;10.77;9.33;;;;;;;;;;4975439;28;20747;-71
2021/10/10 10:45:21;;;;;;;14.40;11.37;;;;;;;;;;4975820;28;20477;-71
2021/10/10 10:47:48;;;;;;;11.73;10.60;;;;;;;;;;4975598;28;20406;-70
2021/10/10 10:50:14;;;;;;;12.27;11.07;;;;;;;;;;4975552;28;20427;-71
2021/10/10 10:52:42;;;;;;;13.27;10.80;;;;;;;;;;4975886;28;20600;-71
2021/10/10 10:55:26;;;;;;;11.27;10.13;;;;;;;;;;4976118;28;20553;-72
2021/10/10 10:57:53;;;;;;;11.77;10.67;;;;;;;;;;4976150;28;20453;-72
2021/10/10 11:00:43;;;;;;;11.60;10.13;;;;;;;;;;4976445;28;20418;-71
2021/10/10 11:03:28;;;;;;;11.60;9.83;;;;;;;;;;4975685;28;20442;-71
2021/10/10 11:05:55;;;;;;;10.73;9.70;;;;;;;;;;4976188;28;20790;-71
2021/10/10 11:08:30;;;;;;;11.00;9.70;;;;;;;;;;4975881;28;20470;-72
2021/10/10 11:11:02;;;;;;;11.10;10.00;;;;;;;;;;4976190;28;20489;-71
2021/10/10 11:13:29;;;;;;;9.63;8.73;;;;;;;;;;4975825;28;20419;-71
2021/10/10 11:15:58;;;;;;;12.60;10.20;;;;;;;;;;4975508;28;20419;-72
2021/10/10 11:18:26;;;;;;;11.60;10.50;;;;;;;;;;4976146;28;20422;-71
2021/10/10 11:21:00;;;;;;;15.30;9.90;;;;;;;;;;4975887;28;20460;-71
2021/10/10 11:23:27;;;;;;;11.27;9.87;;;;;;;;;;4976007;28;20891;-71
2021/10/10 11:25:55;;;;;;;12.30;11.00;;;;;;;;;;4975651;28;20434;-71
2021/10/10 11:28:44;;;;;;;11.00;9.87;;;;;;;;;;4975523;28;20552;-71
2021/10/10 11:31:10;;;;;;;12.60;9.50;;;;;;;;;;4975552;28;20746;-70
2021/10/10 11:33:37;;;;;;;11.50;10.00;;;;;;;;;;4975655;28;20429;-71
2021/10/10 11:36:03;;;;;;;10.80;9.00;;;;;;;;;;4975043;28;20415;-71
2021/10/10 11:38:29;;;;;;;9.83;8.83;;;;;;;;;;4974992;28;20829;-70
2021/10/10 11:40:59;;;;;;;12.80;10.40;;;;;;;;;;4975110;28;20407;-70
2021/10/10 11:43:25;;;;;;;11.40;10.30;;;;;;;;;;4975382;28;20504;-70
2021/10/10 11:45:55;;;;;;;11.37;10.23;;;;;;;;;;4975325;28;20614;-70
2021/10/10 11:48:30;;;;;;;10.47;9.37;;;;;;;;;;4974919;28;20458;-72
2021/10/10 11:50:56;;;;;;;10.73;9.30;;;;;;;;;;4974929;28;20402;-72
2021/10/10 11:53:33;;;;;;;11.50;10.40;;;;;;;;;;4974128;28;20437;-71
2021/10/10 11:56:03;;;;;;;10.40;9.40;;;;;;;;;;4972934;28;20462;-71
2021/10/10 11:58:31;;;;;;;12.50;10.20;;;;;;;;;;4973789;28;20415;-71
2021/10/10 12:01:08;;;;;;;9.90;8.50;;;;;;;;;;4973690;28;20414;-71
2021/10/10 12:03:34;;;;;;;10.63;9.63;;;;;;;;;;4973724;28;20418;-72
2021/10/10 12:06:00;;;;;;;13.07;9.80;;;;;;;;;;4973625;28;20415;-72
2021/10/10 12:08:26;;;;;;;12.83;8.93;;;;;;;;;;4973533;28;20462;-71
2021/10/10 12:10:52;;;;;;;12.57;9.83;;;;;;;;;;4973652;28;20961;-71
2021/10/10 12:13:20;;;;;;;10.80;9.70;;;;;;;;;;4973560;28;20423;-71
2021/10/10 12:15:59;;;;;;;10.57;9.47;;;;;;;;;;4973444;28;20423;-71
2021/10/10 12:18:29;;;;;;;11.40;9.60;;;;;;;;;;4973580;28;20418;-70
2021/10/10 12:21:14;;;;;;;10.87;9.87;;;;;;;;;;4973532;28;20415;-72
2021/10/10 12:23:41;;;;;;;13.20;9.97;;;;;;;;;;4973213;28;20430;-71
2021/10/10 12:26:09;;;;;;;10.10;9.20;;;;;;;;;;4973565;28;20433;-72
2021/10/10 12:28:35;;;;;;;9.73;8.73;;;;;;;;;;4973602;28;21068;-71
2021/10/10 12:31:01;;;;;;;8.20;7.40;;;;;;;;;;4973211;28;20948;-71
2021/10/10 12:33:29;;;;;;;10.67;9.53;;;;;;;;;;4973192;28;20427;-71
2021/10/10 12:36:03;;;;;;;11.80;9.03;;;;;;;;;;4973559;28;20419;-72
2021/10/10 12:38:38;;;;;;;11.03;9.47;;;;;;;;;;4973430;28;20418;-72
2021/10/10 12:41:19;;;;;;;11.03;9.23;;;;;;;;;;4973289;28;20433;-71
2021/10/10 12:43:47;;;;;;;9.33;8.47;;;;;;;;;;4973289;28;20797;-72
2021/10/10 12:46:13;;;;;;;9.40;8.10;;;;;;;;;;4972982;28;20925;-71
2021/10/10 12:48:39;;;;;;;10.23;8.70;;;;;;;;;;4972936;28;20458;-72
2021/10/10 12:51:14;;;;;;;8.60;7.70;;;;;;;;;;4973369;28;20549;-71
2021/10/10 12:53:40;;;;;;;10.60;9.37;;;;;;;;;;4973493;28;20501;-71
2021/10/10 12:56:13;;;;;;;10.00;8.33;;;;;;;;;;4973250;28;20513;-71
2021/10/10 12:58:58;;;;;;;10.90;8.57;;;;;;;;;;4973013;28;20462;-71
2021/10/10 13:01:25;;;;;;;9.60;8.47;;;;;;;;;;4973236;28;20414;-71
2021/10/10 13:03:51;;;;;;;9.00;8.13;;;;;;;;;;4973493;28;20466;-71
2021/10/10 13:06:18;;;;;;;9.70;8.80;;;;;;;;;;4972706;28;20768;-71
2021/10/10 13:08:48;;;;;;;12.97;8.40;;;;;;;;;;4972976;28;20509;-70
2021/10/10 13:11:15;;;;;;;10.57;8.73;;;;;;;;;;4972737;28;20466;-71
2021/10/10 13:13:41;;;;;;;11.83;8.80;;;;;;;;;;4972972;28;20403;-72
2021/10/10 13:16:07;;;;;;;14.97;8.80;;;;;;;;;;4972933;28;20523;-70
2021/10/10 13:18:33;;;;;;;9.10;8.30;;;;;;;;;;4972680;28;20402;-71
2021/10/10 13:24:04;;;;;;;10.87;9.10;;;;;;;;;;4972660;28;20446;-71
2021/10/10 13:26:30;;;;;;;9.80;8.60;;;;;;;;;;4972520;28;20800;-71
2021/10/10 13:28:56;;;;;;;10.23;8.50;;;;;;;;;;4972463;28;20505;-71
2021/10/10 13:31:22;;;;;;;9.97;8.97;;;;;;;;;;4972662;28;20406;-71
2021/10/10 13:33:48;;;;;;;10.53;7.90;;;;;;;;;;4972812;28;20477;-72
2021/10/10 13:36:16;;;;;;;13.00;8.60;;;;;;;;;;4972832;28;20415;-72
2021/10/10 13:38:42;;;;;;;9.33;8.30;;;;;;;;;;4972915;28;20466;-71
2021/10/10 13:41:08;;;;;;;9.27;8.33;;;;;;;;;;4972852;28;20486;-72
2021/10/10 13:43:34;;;;;;;9.90;7.63;;;;;;;;;;4973212;28;20430;-71
2021/10/10 13:46:00;;;;;;;15.30;8.60;;;;;;;;;;4972777;28;20422;-70
2021/10/10 13:48:27;;;;;;;10.10;8.93;;;;;;;;;;4972582;28;20465;-71
2021/10/10 13:53:56;;;;;;;10.30;8.33;;;;;;;;;;4972605;28;20473;-71
2021/10/10 13:56:23;;;;;;;9.30;8.43;;;;;;;;;;4972232;28;20462;-71
2021/10/10 13:58:49;;;;;;;12.47;8.80;;;;;;;;;;4974642;28;20786;-71
2021/10/10 14:01:15;;;;;;;11.50;8.70;;;;;;;;;;4976190;28;20411;-72
2021/10/10 14:03:42;;;;;;;9.33;8.47;;;;;;;;;;4976232;28;20418;-71
2021/10/10 14:09:11;;;;;;;11.17;8.13;;;;;;;;;;4976114;28;20521;-71
2021/10/10 14:11:37;;;;;;;12.97;8.47;;;;;;;;;;4976061;28;20965;-72
2021/10/10 14:14:04;;;;;;;10.43;8.23;;;;;;;;;;4976037;28;20448;-70
2021/10/10 14:16:30;;;;;;;8.57;7.77;;;;;;;;;;4975914;28;20415;-71
2021/10/10 14:18:56;;;;;;;8.60;7.80;;;;;;;;;;4975955;28;20621;-71
2021/10/10 14:21:22;;;;;;;13.60;7.87;;;;;;;;;;4976485;28;20549;-71
2021/10/10 14:23:49;;;;;;;12.23;8.53;;;;;;;;;;4977089;28;20418;-71
2021/10/10 14:26:15;;;;;;;14.23;9.03;;;;;;;;;;4976593;28;20909;-71
2021/10/10 14:28:41;;;;;;;19.43;13.13;;;;;;;;;;4975554;28;20486;-72
2021/10/10 14:31:07;;;;;;;16.13;11.60;;;;;;;;;;4976966;28;20406;-72
2021/10/10 14:33:33;;;;;;;8.80;7.90;;;;;;;;;;4976855;28;20399;-70
2021/10/10 14:39:03;;;;;;;10.67;8.47;;;;;;;;;;4976579;28;20422;-71
2021/10/10 14:41:40;;;;;;;13.97;8.17;;;;;;;;;;4976625;28;20411;-71
2021/10/10 14:44:51;;;;;;;10.47;8.20;;;;;;;;;;4976759;28;20433;-72
2021/10/10 14:47:14;;;;;;;11.00;8.50;;;;;;;;;;4974361;28;20422;-69
2021/10/10 14:49:40;;;;;;;10.67;6.60;;;;;;;;;;4974992;28;20906;-69
2021/10/10 14:52:07;;;;;;;11.80;7.50;;;;;;;;;;4975269;28;20829;-70
2021/10/10 14:54:34;;;;;;;7.07;6.43;;;;;;;;;;4973894;28;20819;-70
2021/10/10 14:57:05;;;;;;;7.83;6.80;;;;;;;;;;4975306;28;20454;-71
2021/10/10 14:59:31;;;;;;;7.80;7.10;;;;;;;;;;4975349;28;20419;-70
2021/10/10 15:01:57;;;;;;;8.53;7.33;;;;;;;;;;4974915;28;20493;-71
2021/10/10 15:04:23;;;;;;;8.67;7.50;;;;;;;;;;4974910;28;20487;-72
2021/10/10 15:06:49;;;;;;;9.50;7.50;;;;;;;;;;4975330;28;20415;-71
2021/10/10 15:09:15;;;;;;;8.10;6.63;;;;;;;;;;4975793;28;20501;-71
2021/10/10 15:11:41;;;;;;;9.83;7.67;;;;;;;;;;4976151;28;20411;-71
2021/10/10 15:14:07;;;;;;;8.03;6.90;;;;;;;;;;4976074;28;20454;-71
2021/10/10 15:16:33;;;;;;;11.27;6.77;;;;;;;;;;4975923;28;20411;-72
2021/10/10 15:18:59;;;;;;;11.90;7.13;;;;;;;;;;4976100;28;20491;-72
2021/10/10 15:24:30;;;;;;;8.97;7.17;;;;;;;;;;4975977;28;20457;-71
2021/10/10 15:26:56;;;;;;;8.60;6.77;;;;;;;;;;4975904;28;20468;-71
2021/10/10 15:29:22;;;;;;;7.50;6.57;;;;;;;;;;4976212;28;20969;-71
2021/10/10 15:31:48;;;;;;;8.27;7.03;;;;;;;;;;4975830;28;20509;-71
2021/10/10 15:34:14;;;;;;;9.57;6.70;;;;;;;;;;4975659;28;20419;-71
2021/10/10 15:36:40;;;;;;;10.63;6.77;;;;;;;;;;4974351;28;20438;-70
2021/10/10 15:39:06;;;;;;;8.63;7.73;;;;;;;;;;4975574;28;20910;-73
2021/10/10 15:41:32;;;;;;;8.30;7.40;;;;;;;;;;4975698;28;20422;-71
2021/10/10 15:44:03;;;;;;;7.90;7.03;;;;;;;;;;4975415;28;20422;-72
2021/10/10 15:46:29;;;;;;;11.40;6.33;;;;;;;;;;4974449;28;20466;-70
2021/10/10 15:48:55;;;;;;;8.30;6.50;;;;;;;;;;4974155;28;20505;-71
2021/10/10 15:54:25;;;;;;;13.90;7.30;;;;;;;;;;4975128;28;20409;-72
2021/10/10 15:56:52;;;;;;;12.37;7.60;;;;;;;;;;4975193;28;20828;-71
2021/10/10 15:59:18;;;;;;;12.50;7.63;;;;;;;;;;4975020;28;20528;-71
2021/10/10 16:01:44;;;;;;;9.73;8.20;;;;;;;;;;4974230;28;20411;-71
2021/10/10 16:04:10;;;;;;;10.00;7.60;;;;;;;;;;4974741;28;20957;-71
2021/10/10 16:09:40;;;;;;;15.07;6.83;;;;;;;;;;4975099;28;20544;-73
2021/10/10 16:12:07;;;;;;;13.77;7.70;;;;;;;;;;4975130;28;20421;-71
2021/10/10 16:14:33;;;;;;;14.80;7.93;;;;;;;;;;4975435;28;20423;-71
2021/10/10 16:16:59;;;;;;;12.10;7.97;;;;;;;;;;4975186;28;20415;-71
2021/10/10 16:25:13;;;;;;;11.00;8.10;;;;;;;;;;4974825;28;20810;-70
2021/10/10 16:27:39;;;;;;;14.93;8.17;;;;;;;;;;4974721;28;20424;-70
2021/10/10 16:30:06;;;;;;;10.10;7.33;;;;;;;;;;4974632;28;20470;-71
2021/10/10 16:32:32;;;;;;;14.87;8.37;;;;;;;;;;4974784;28;20442;-71